Time;durP1;ratioP1;P1;durP2;ratioP2;P2;SDS_P1;SDS_P2;PMS_P1;PMS_P2;Temp;Humidity;BMP_temperature;BMP_pressure;BME280_temperature;BME280_humidity;BME280_pressure;Samples;Min_cycle;Max_cycle;Signal;HPM_P1;HPM_P2
2022/07/09 00:00:41;;;;;;;4.95;3.17;;;;;;;;;;5060346;28;20163;-74
2022/07/09 00:03:07;;;;;;;5.00;3.20;;;;;;;;;;5058138;28;20033;-80
2022/07/09 00:08:55;;;;;;;9.82;3.40;;;;;;;;;;4957490;23;20093;-74
2022/07/09 00:11:21;;;;;;;9.20;3.30;;;;;;;;;;4981597;28;20041;-72
2022/07/09 00:13:48;;;;;;;5.95;3.20;;;;;;;;;;5000746;28;20042;-78
2022/07/09 00:16:14;;;;;;;8.15;3.15;;;;;;;;;;4999552;28;20081;-75
2022/07/09 00:18:40;;;;;;;8.45;3.40;;;;;;;;;;4980724;28;20031;-79
2022/07/09 00:21:06;;;;;;;6.32;3.10;;;;;;;;;;4975710;28;20023;-79
2022/07/09 00:23:33;;;;;;;9.98;3.10;;;;;;;;;;4989014;28;20411;-79
2022/07/09 00:25:59;;;;;;;5.55;2.85;;;;;;;;;;5000363;28;20046;-80
2022/07/09 00:28:25;;;;;;;6.00;2.63;;;;;;;;;;5000885;28;20135;-78
2022/07/09 00:30:51;;;;;;;3.60;2.70;;;;;;;;;;4993610;28;20380;-74
2022/07/09 00:33:17;;;;;;;7.85;2.50;;;;;;;;;;5002756;28;20133;-78
2022/07/09 00:35:43;;;;;;;6.15;2.40;;;;;;;;;;5002625;28;20065;-79
2022/07/09 00:38:09;;;;;;;6.75;3.25;;;;;;;;;;4986658;28;20037;-73
2022/07/09 00:40:35;;;;;;;4.93;2.47;;;;;;;;;;4993062;28;20419;-79
2022/07/09 00:43:01;;;;;;;6.63;2.45;;;;;;;;;;4997106;28;20034;-76
2022/07/09 00:45:28;;;;;;;10.85;2.88;;;;;;;;;;4993789;28;20030;-79
2022/07/09 00:47:54;;;;;;;6.35;2.25;;;;;;;;;;4995186;28;20026;-78
2022/07/09 00:50:20;;;;;;;4.47;2.50;;;;;;;;;;4994645;28;20484;-78
2022/07/09 00:52:46;;;;;;;6.30;2.67;;;;;;;;;;4996338;28;20023;-79
2022/07/09 00:55:13;;;;;;;6.15;2.97;;;;;;;;;;4996819;28;20109;-79
2022/07/09 00:57:39;;;;;;;6.05;2.63;;;;;;;;;;4993624;28;20420;-76
2022/07/09 01:00:06;;;;;;;5.97;2.53;;;;;;;;;;4994969;28;20088;-72
2022/07/09 01:02:32;;;;;;;3.92;2.60;;;;;;;;;;4977435;28;20480;-78
2022/07/09 01:04:58;;;;;;;6.38;2.85;;;;;;;;;;4994264;28;20046;-77
2022/07/09 01:07:24;;;;;;;7.75;2.70;;;;;;;;;;4996174;28;20064;-73
2022/07/09 01:09:50;;;;;;;7.32;2.90;;;;;;;;;;4991803;28;20045;-78
2022/07/09 01:12:16;;;;;;;5.15;2.80;;;;;;;;;;4995177;28;20026;-76
2022/07/09 01:14:42;;;;;;;7.72;2.70;;;;;;;;;;4970997;28;20032;-77
2022/07/09 01:17:08;;;;;;;5.57;2.67;;;;;;;;;;4982417;28;20499;-77
2022/07/09 01:19:35;;;;;;;6.97;3.10;;;;;;;;;;4996497;28;20109;-71
2022/07/09 01:22:01;;;;;;;8.80;2.60;;;;;;;;;;4998960;28;20026;-76
2022/07/09 01:24:27;;;;;;;8.07;2.92;;;;;;;;;;4998920;28;20045;-72
2022/07/09 01:26:54;;;;;;;8.50;2.80;;;;;;;;;;4999163;28;20031;-76
2022/07/09 01:29:20;;;;;;;5.38;2.75;;;;;;;;;;4994109;28;20031;-78
2022/07/09 01:31:46;;;;;;;9.90;2.92;;;;;;;;;;4990527;28;20025;-76
2022/07/09 01:34:12;;;;;;;4.97;2.72;;;;;;;;;;4997243;28;20026;-76
2022/07/09 01:36:38;;;;;;;6.10;3.08;;;;;;;;;;4980380;28;20042;-76
2022/07/09 01:39:04;;;;;;;4.28;2.80;;;;;;;;;;4998962;28;20026;-76
2022/07/09 01:41:31;;;;;;;5.70;2.88;;;;;;;;;;4998329;28;20037;-77
2022/07/09 01:43:58;;;;;;;4.05;2.83;;;;;;;;;;4999677;28;20039;-76
2022/07/09 01:46:24;;;;;;;4.13;2.92;;;;;;;;;;5001653;28;20026;-72
2022/07/09 01:48:50;;;;;;;8.07;3.17;;;;;;;;;;4964516;28;20062;-73
2022/07/09 01:51:16;;;;;;;4.65;2.90;;;;;;;;;;5000120;28;20050;-77
2022/07/09 01:53:42;;;;;;;3.85;2.90;;;;;;;;;;5003600;28;20053;-76
2022/07/09 01:56:09;;;;;;;6.05;3.00;;;;;;;;;;5010928;28;20082;-73
2022/07/09 01:58:35;;;;;;;6.97;3.05;;;;;;;;;;5012340;28;20026;-77
2022/07/09 02:01:01;;;;;;;5.07;3.00;;;;;;;;;;4988567;28;20077;-76
2022/07/09 02:03:28;;;;;;;7.35;3.22;;;;;;;;;;4998342;28;20042;-77
2022/07/09 02:05:54;;;;;;;6.20;2.90;;;;;;;;;;5010639;28;20082;-77
2022/07/09 02:08:20;;;;;;;10.57;3.20;;;;;;;;;;5003531;28;20073;-74
2022/07/09 02:10:46;;;;;;;7.85;3.17;;;;;;;;;;4973976;28;20018;-73
2022/07/09 02:13:13;;;;;;;9.52;4.25;;;;;;;;;;4993533;28;20041;-72
2022/07/09 02:15:39;;;;;;;8.43;3.80;;;;;;;;;;4998820;28;20026;-77
2022/07/09 02:18:05;;;;;;;11.20;4.03;;;;;;;;;;5007788;28;20033;-71
2022/07/09 02:20:32;;;;;;;8.60;4.85;;;;;;;;;;4991401;28;20034;-76
2022/07/09 02:22:58;;;;;;;8.02;5.32;;;;;;;;;;5001030;28;20029;-77
2022/07/09 02:25:24;;;;;;;7.47;4.82;;;;;;;;;;5016731;28;20045;-76
2022/07/09 02:27:50;;;;;;;6.97;5.55;;;;;;;;;;5005546;28;20164;-78
2022/07/09 02:30:16;;;;;;;7.50;5.10;;;;;;;;;;5005410;28;20500;-78
2022/07/09 02:32:42;;;;;;;6.07;5.00;;;;;;;;;;5006072;28;20014;-72
2022/07/09 02:35:08;;;;;;;7.93;5.18;;;;;;;;;;5010885;28;20033;-75
2022/07/09 02:37:35;;;;;;;7.25;5.47;;;;;;;;;;5009506;28;20113;-73
2022/07/09 02:40:01;;;;;;;6.00;5.40;;;;;;;;;;5006949;28;20030;-73
2022/07/09 02:42:27;;;;;;;8.40;5.90;;;;;;;;;;4989532;28;20029;-77
2022/07/09 02:44:53;;;;;;;10.60;6.50;;;;;;;;;;4977833;28;20038;-76
2022/07/09 02:47:19;;;;;;;10.20;7.18;;;;;;;;;;4977131;28;20026;-77
2022/07/09 02:49:45;;;;;;;9.50;7.00;;;;;;;;;;4994041;28;20107;-77
2022/07/09 02:52:11;;;;;;;10.32;8.18;;;;;;;;;;5008380;28;20034;-74
2022/07/09 02:54:37;;;;;;;13.85;8.05;;;;;;;;;;5006069;28;20050;-77
2022/07/09 02:57:03;;;;;;;14.48;9.73;;;;;;;;;;5010380;28;20060;-76
2022/07/09 02:59:30;;;;;;;12.40;9.30;;;;;;;;;;5005379;28;20480;-75
2022/07/09 03:01:56;;;;;;;13.98;11.00;;;;;;;;;;5004496;28;20110;-77
2022/07/09 03:04:22;;;;;;;14.07;10.35;;;;;;;;;;4992933;28;20049;-74
2022/07/09 03:06:48;;;;;;;16.33;11.23;;;;;;;;;;5009861;28;20158;-72
2022/07/09 03:09:14;;;;;;;14.10;9.82;;;;;;;;;;5003148;28;20053;-76
2022/07/09 03:11:40;;;;;;;15.05;10.20;;;;;;;;;;5011886;28;20080;-76
2022/07/09 03:14:06;;;;;;;12.75;8.00;;;;;;;;;;5012466;28;20031;-75
2022/07/09 03:16:33;;;;;;;10.70;8.32;;;;;;;;;;5010527;28;20092;-75
2022/07/09 03:18:59;;;;;;;12.98;8.05;;;;;;;;;;5011122;28;20026;-77
2022/07/09 03:21:25;;;;;;;14.25;11.10;;;;;;;;;;5010522;28;20073;-72
2022/07/09 03:23:51;;;;;;;18.25;11.68;;;;;;;;;;5008009;28;20464;-76
2022/07/09 03:26:17;;;;;;;16.13;11.07;;;;;;;;;;5010000;28;20066;-78
2022/07/09 03:28:43;;;;;;;17.80;10.75;;;;;;;;;;4995103;28;20034;-78
2022/07/09 03:31:09;;;;;;;17.40;11.88;;;;;;;;;;5004742;28;20026;-77
2022/07/09 03:33:35;;;;;;;18.05;11.23;;;;;;;;;;4997312;28;20019;-73
2022/07/09 03:36:01;;;;;;;18.88;10.45;;;;;;;;;;5012223;28;20086;-77
2022/07/09 03:38:27;;;;;;;14.32;10.18;;;;;;;;;;4979721;28;20389;-78
2022/07/09 03:40:53;;;;;;;14.05;9.43;;;;;;;;;;4981460;28;20030;-77
2022/07/09 03:43:19;;;;;;;13.50;9.20;;;;;;;;;;5013436;28;20036;-77
2022/07/09 03:45:45;;;;;;;16.27;8.90;;;;;;;;;;5015083;28;20026;-74
2022/07/09 03:48:11;;;;;;;12.73;8.98;;;;;;;;;;5003012;28;20022;-77
2022/07/09 03:50:37;;;;;;;14.98;9.23;;;;;;;;;;5001187;28;20105;-77
2022/07/09 03:53:03;;;;;;;15.18;9.82;;;;;;;;;;4972504;28;20034;-75
2022/07/09 03:55:29;;;;;;;13.45;9.10;;;;;;;;;;4999141;28;20115;-76
2022/07/09 03:57:55;;;;;;;16.08;9.05;;;;;;;;;;4997742;28;20077;-76
2022/07/09 04:00:21;;;;;;;10.05;7.65;;;;;;;;;;5001475;28;20110;-72
2022/07/09 04:02:48;;;;;;;11.73;7.90;;;;;;;;;;4996104;28;20101;-78
2022/07/09 04:05:14;;;;;;;9.65;6.60;;;;;;;;;;4986932;28;20124;-77
2022/07/09 04:07:40;;;;;;;9.00;6.88;;;;;;;;;;5007654;28;20076;-72
2022/07/09 04:10:06;;;;;;;8.40;6.53;;;;;;;;;;4995413;28;20074;-77
2022/07/09 04:12:32;;;;;;;11.82;6.45;;;;;;;;;;5013953;28;20039;-77
2022/07/09 04:14:58;;;;;;;8.73;5.90;;;;;;;;;;5025859;28;20030;-77
2022/07/09 04:17:25;;;;;;;10.20;6.00;;;;;;;;;;4994364;28;20022;-77
2022/07/09 04:19:51;;;;;;;8.77;6.03;;;;;;;;;;5022736;28;20056;-73
2022/07/09 04:22:17;;;;;;;6.93;5.68;;;;;;;;;;5025428;28;20034;-77
2022/07/09 04:24:43;;;;;;;7.43;5.53;;;;;;;;;;5026232;28;20430;-76
2022/07/09 04:27:09;;;;;;;9.23;5.30;;;;;;;;;;5023062;28;20021;-75
2022/07/09 04:29:35;;;;;;;6.20;4.80;;;;;;;;;;5002936;28;20365;-76
2022/07/09 04:32:01;;;;;;;7.80;5.32;;;;;;;;;;5017202;28;20088;-78
2022/07/09 04:34:27;;;;;;;8.40;5.10;;;;;;;;;;4993304;28;20398;-76
2022/07/09 04:36:53;;;;;;;7.88;4.90;;;;;;;;;;5013538;28;20030;-78
2022/07/09 04:39:19;;;;;;;6.93;5.15;;;;;;;;;;4998311;28;20411;-78
2022/07/09 04:41:45;;;;;;;7.78;5.20;;;;;;;;;;5011129;28;20030;-75
2022/07/09 04:44:15;;;;;;;6.97;5.38;;;;;;;;;;4989001;28;20034;-71
2022/07/09 04:46:41;;;;;;;8.45;5.43;;;;;;;;;;5004925;28;20022;-75
2022/07/09 04:49:07;;;;;;;8.63;5.32;;;;;;;;;;5000915;28;20488;-73
2022/07/09 04:51:33;;;;;;;11.35;5.60;;;;;;;;;;4978164;28;20034;-73
2022/07/09 04:53:59;;;;;;;13.05;6.28;;;;;;;;;;5004498;28;20026;-73
2022/07/09 04:56:25;;;;;;;8.90;5.50;;;;;;;;;;4997177;28;20033;-71
2022/07/09 04:58:51;;;;;;;8.50;5.82;;;;;;;;;;4998652;28;20124;-74
2022/07/09 05:01:24;;;;;;;7.95;5.78;;;;;;;;;;5017672;28;20030;-78
2022/07/09 05:03:50;;;;;;;6.65;5.32;;;;;;;;;;5006479;28;20065;-79
2022/07/09 05:06:16;;;;;;;6.80;5.18;;;;;;;;;;5009839;28;20026;-74
2022/07/09 05:08:43;;;;;;;9.57;5.57;;;;;;;;;;5011312;28;20049;-81
2022/07/09 05:11:10;;;;;;;7.70;5.05;;;;;;;;;;5013948;28;20349;-76
2022/07/09 05:13:36;;;;;;;7.40;4.82;;;;;;;;;;5012819;28;20030;-74
2022/07/09 05:16:02;;;;;;;10.93;5.15;;;;;;;;;;5012283;28;20105;-79
2022/07/09 05:18:30;;;;;;;10.75;4.95;;;;;;;;;;5007238;28;20064;-75
2022/07/09 05:20:56;;;;;;;8.65;5.65;;;;;;;;;;5009188;28;20449;-78
2022/07/09 05:23:23;;;;;;;11.32;5.15;;;;;;;;;;4997925;28;20073;-77
2022/07/09 05:25:49;;;;;;;13.07;4.70;;;;;;;;;;5012011;28;20018;-82
2022/07/09 05:28:15;;;;;;;11.35;4.72;;;;;;;;;;5008908;28;20030;-74
2022/07/09 05:30:41;;;;;;;8.32;5.10;;;;;;;;;;5012703;28;20052;-76
2022/07/09 05:33:08;;;;;;;12.75;5.00;;;;;;;;;;5013297;28;20113;-73
2022/07/09 05:35:34;;;;;;;6.15;4.45;;;;;;;;;;5012809;28;20022;-81
2022/07/09 05:38:00;;;;;;;9.48;4.65;;;;;;;;;;5007740;28;20502;-79
2022/07/09 05:40:26;;;;;;;11.02;4.80;;;;;;;;;;4996250;28;20041;-77
2022/07/09 05:42:52;;;;;;;9.40;4.90;;;;;;;;;;4975849;28;20034;-77
2022/07/09 05:45:18;;;;;;;9.60;4.97;;;;;;;;;;5008080;28;20033;-74
2022/07/09 05:47:44;;;;;;;7.15;4.70;;;;;;;;;;5012716;28;20017;-80
2022/07/09 05:50:11;;;;;;;8.55;4.57;;;;;;;;;;5002308;28;20025;-76
2022/07/09 05:52:40;;;;;;;10.15;4.95;;;;;;;;;;4994202;28;20034;-77
2022/07/09 05:55:06;;;;;;;9.55;4.65;;;;;;;;;;5012890;28;20026;-72
2022/07/09 05:57:32;;;;;;;9.07;4.45;;;;;;;;;;4987977;28;20396;-78
2022/07/09 05:59:58;;;;;;;9.73;4.00;;;;;;;;;;5001877;28;20037;-78
2022/07/09 06:02:24;;;;;;;8.32;4.80;;;;;;;;;;4983323;28;20125;-80
2022/07/09 06:04:50;;;;;;;8.32;4.75;;;;;;;;;;5004425;28;20053;-78
2022/07/09 06:07:16;;;;;;;9.82;4.65;;;;;;;;;;5003251;28;20022;-85
2022/07/09 06:09:42;;;;;;;10.02;4.95;;;;;;;;;;5007709;28;20129;-73
2022/07/09 06:12:09;;;;;;;9.85;4.60;;;;;;;;;;5009429;28;20033;-75
2022/07/09 06:14:35;;;;;;;7.90;4.38;;;;;;;;;;4989873;28;20041;-85
2022/07/09 06:17:05;;;;;;;8.45;4.50;;;;;;;;;;4990470;28;20058;-78
2022/07/09 06:19:32;;;;;;;12.05;4.88;;;;;;;;;;5010403;28;20034;-71
2022/07/09 06:21:59;;;;;;;11.43;4.93;;;;;;;;;;4992555;28;20499;-73
2022/07/09 06:24:25;;;;;;;7.78;4.93;;;;;;;;;;5012038;28;20062;-71
2022/07/09 06:26:51;;;;;;;7.70;4.68;;;;;;;;;;4994767;28;20030;-78
2022/07/09 06:29:17;;;;;;;7.78;4.40;;;;;;;;;;5010437;28;20108;-76
2022/07/09 06:31:43;;;;;;;9.32;5.20;;;;;;;;;;5000583;28;20038;-71
2022/07/09 06:34:10;;;;;;;8.32;4.70;;;;;;;;;;5006921;28;20033;-71
2022/07/09 06:36:36;;;;;;;8.75;4.45;;;;;;;;;;5004337;28;20132;-73
2022/07/09 06:41:47;;;;;;;6.78;4.30;;;;;;;;;;5009985;28;20495;-77
2022/07/09 06:44:13;;;;;;;8.52;4.70;;;;;;;;;;5010217;28;20038;-74
2022/07/09 06:46:39;;;;;;;8.60;5.07;;;;;;;;;;5012413;28;20041;-75
2022/07/09 06:49:05;;;;;;;10.90;4.97;;;;;;;;;;4986838;28;20035;-75
2022/07/09 06:51:32;;;;;;;7.43;5.40;;;;;;;;;;5005606;28;20035;-75
2022/07/09 06:53:58;;;;;;;9.65;5.05;;;;;;;;;;5003743;28;20029;-77
2022/07/09 06:56:24;;;;;;;9.38;5.32;;;;;;;;;;4981357;28;20038;-77
2022/07/09 06:58:50;;;;;;;9.13;5.15;;;;;;;;;;4987344;28;20038;-77
2022/07/09 07:01:16;;;;;;;9.50;5.32;;;;;;;;;;5003991;28;20022;-73
2022/07/09 07:03:42;;;;;;;9.77;4.88;;;;;;;;;;5006496;28;20042;-75
2022/07/09 07:06:08;;;;;;;11.18;5.57;;;;;;;;;;5005194;28;20058;-74
2022/07/09 07:08:34;;;;;;;9.82;5.25;;;;;;;;;;5009910;28;20050;-72
2022/07/09 07:11:00;;;;;;;8.93;4.70;;;;;;;;;;5015510;28;20468;-90
2022/07/09 07:13:26;;;;;;;8.63;5.65;;;;;;;;;;5012703;28;20464;-79
2022/07/09 07:15:52;;;;;;;9.55;5.40;;;;;;;;;;5012571;28;20401;-84
2022/07/09 07:18:19;;;;;;;7.18;5.20;;;;;;;;;;5010427;28;20084;-77
2022/07/09 07:20:45;;;;;;;9.40;5.78;;;;;;;;;;4983479;28;20476;-76
2022/07/09 07:23:11;;;;;;;9.65;6.30;;;;;;;;;;4989679;28;20050;-78
2022/07/09 07:25:37;;;;;;;9.80;5.45;;;;;;;;;;5004034;28;20064;-76
2022/07/09 07:28:04;;;;;;;8.40;4.75;;;;;;;;;;4989459;28;20099;-77
2022/07/09 07:30:32;;;;;;;6.68;4.28;;;;;;;;;;4984290;28;20072;-76
2022/07/09 07:32:59;;;;;;;6.28;3.35;;;;;;;;;;4989023;28;20476;-79
2022/07/09 07:35:25;;;;;;;5.85;3.38;;;;;;;;;;5008592;28;20100;-78
2022/07/09 07:37:51;;;;;;;6.40;3.70;;;;;;;;;;5011011;28;20487;-78
2022/07/09 07:40:17;;;;;;;7.50;4.20;;;;;;;;;;5005817;28;20468;-77
2022/07/09 07:42:43;;;;;;;7.97;4.50;;;;;;;;;;5005572;28;20026;-79
2022/07/09 07:45:10;;;;;;;7.97;4.53;;;;;;;;;;5010768;28;20041;-79
2022/07/09 07:47:36;;;;;;;9.15;4.32;;;;;;;;;;5009067;28;20476;-77
2022/07/09 07:50:02;;;;;;;5.78;3.65;;;;;;;;;;5006022;28;20033;-85
2022/07/09 07:52:28;;;;;;;6.80;4.03;;;;;;;;;;4989559;28;20443;-77
2022/07/09 07:54:54;;;;;;;7.35;3.22;;;;;;;;;;4996297;28;20542;-77
2022/07/09 07:57:20;;;;;;;11.38;3.95;;;;;;;;;;5009279;28;20428;-78
2022/07/09 07:59:46;;;;;;;6.28;3.15;;;;;;;;;;5009026;28;20479;-82
2022/07/09 08:02:13;;;;;;;4.50;3.00;;;;;;;;;;5000928;28;20467;-78
2022/07/09 08:04:39;;;;;;;6.75;2.83;;;;;;;;;;4995474;28;20037;-74
2022/07/09 08:07:05;;;;;;;5.03;2.83;;;;;;;;;;5008102;28;20032;-73
2022/07/09 08:09:32;;;;;;;9.60;2.80;;;;;;;;;;5002980;28;20080;-76
2022/07/09 08:11:59;;;;;;;4.13;2.90;;;;;;;;;;5010193;28;20026;-69
2022/07/09 08:14:25;;;;;;;5.38;2.97;;;;;;;;;;5013784;28;20538;-70
2022/07/09 08:16:51;;;;;;;5.65;2.92;;;;;;;;;;5012058;28;20038;-69
2022/07/09 08:19:17;;;;;;;5.70;3.30;;;;;;;;;;5009519;28;20037;-73
2022/07/09 08:21:43;;;;;;;5.93;2.90;;;;;;;;;;5001462;28;20034;-72
2022/07/09 08:24:09;;;;;;;10.35;4.05;;;;;;;;;;5012704;28;20040;-71
2022/07/09 08:26:35;;;;;;;7.05;3.20;;;;;;;;;;5009663;28;20101;-68
2022/07/09 08:29:01;;;;;;;4.65;3.20;;;;;;;;;;5012792;28;20034;-71
2022/07/09 08:31:27;;;;;;;6.13;3.50;;;;;;;;;;5011139;28;20033;-70
2022/07/09 08:33:55;;;;;;;5.85;3.00;;;;;;;;;;5008478;28;20161;-68
2022/07/09 08:36:21;;;;;;;7.25;3.40;;;;;;;;;;4998355;28;20109;-71
2022/07/09 08:38:49;;;;;;;6.00;2.83;;;;;;;;;;5005275;28;20030;-74
2022/07/09 08:41:19;;;;;;;4.25;3.05;;;;;;;;;;5003006;28;20033;-72
2022/07/09 08:43:48;;;;;;;5.53;3.00;;;;;;;;;;5010616;28;20037;-77
2022/07/09 08:46:15;;;;;;;5.13;3.13;;;;;;;;;;5011132;28;20034;-74
2022/07/09 08:48:43;;;;;;;5.25;3.10;;;;;;;;;;5007164;28;20071;-73
2022/07/09 08:51:09;;;;;;;6.45;2.92;;;;;;;;;;4992887;28;20030;-72
2022/07/09 08:53:40;;;;;;;8.95;3.15;;;;;;;;;;5007037;28;20076;-73
2022/07/09 08:56:06;;;;;;;8.40;3.25;;;;;;;;;;4993139;28;20373;-71
2022/07/09 08:58:32;;;;;;;6.75;2.95;;;;;;;;;;5004844;28;20037;-71
2022/07/09 09:00:58;;;;;;;9.10;3.38;;;;;;;;;;4998405;28;20013;-70
2022/07/09 09:03:25;;;;;;;8.43;3.70;;;;;;;;;;5003668;28;20061;-70
2022/07/09 09:06:08;;;;;;;4.70;3.00;;;;;;;;;;5010150;28;20048;-71
2022/07/09 09:08:35;;;;;;;5.93;3.03;;;;;;;;;;4997473;28;20181;-70
2022/07/09 09:11:01;;;;;;;5.90;2.90;;;;;;;;;;4987151;28;20026;-70
2022/07/09 09:13:28;;;;;;;7.82;3.00;;;;;;;;;;4988974;28;20072;-70
2022/07/09 09:16:06;;;;;;;5.57;3.00;;;;;;;;;;4985543;28;20033;-92
2022/07/09 09:18:35;;;;;;;7.65;2.70;;;;;;;;;;4977455;28;20041;-71
2022/07/09 09:21:02;;;;;;;4.57;2.90;;;;;;;;;;4987124;28;20033;-72
2022/07/09 09:23:28;;;;;;;4.20;3.00;;;;;;;;;;4979809;28;20061;-70
2022/07/09 09:25:54;;;;;;;6.93;3.10;;;;;;;;;;4986651;28;20022;-76
2022/07/09 09:28:20;;;;;;;7.93;3.08;;;;;;;;;;4983077;28;20106;-71
2022/07/09 09:30:46;;;;;;;4.75;2.78;;;;;;;;;;4988783;28;20097;-79
2022/07/09 09:33:15;;;;;;;5.43;3.00;;;;;;;;;;4965367;28;20476;-74
2022/07/09 09:35:45;;;;;;;4.40;2.88;;;;;;;;;;4980700;28;20026;-76
2022/07/09 09:38:11;;;;;;;4.43;2.97;;;;;;;;;;4983915;28;20302;-71
2022/07/09 09:40:37;;;;;;;5.38;2.80;;;;;;;;;;4984360;28;20097;-72
2022/07/09 09:43:04;;;;;;;6.35;2.60;;;;;;;;;;4990622;28;20035;-73
2022/07/09 09:45:30;;;;;;;6.22;2.80;;;;;;;;;;4967020;28;20105;-70
2022/07/09 09:48:00;;;;;;;5.15;2.70;;;;;;;;;;4984659;28;20029;-72
2022/07/09 09:50:26;;;;;;;14.95;4.38;;;;;;;;;;4981624;28;20109;-73
2022/07/09 09:52:56;;;;;;;11.60;2.72;;;;;;;;;;4988788;28;20026;-73
2022/07/09 09:55:23;;;;;;;3.72;2.80;;;;;;;;;;4992174;28;20412;-72
2022/07/09 09:57:49;;;;;;;4.50;2.58;;;;;;;;;;4992257;28;20034;-73
2022/07/09 10:00:16;;;;;;;5.20;2.50;;;;;;;;;;4982716;28;20081;-73
2022/07/09 10:02:44;;;;;;;8.88;3.20;;;;;;;;;;4988225;28;20138;-72
2022/07/09 10:05:10;;;;;;;4.80;3.00;;;;;;;;;;4992498;28;20041;-70
2022/07/09 10:07:36;;;;;;;6.57;2.97;;;;;;;;;;4986007;28;20117;-73
2022/07/09 10:10:03;;;;;;;5.03;3.40;;;;;;;;;;4991403;28;20026;-72
2022/07/09 10:12:29;;;;;;;5.55;2.70;;;;;;;;;;4987929;28;20029;-72
2022/07/09 10:14:56;;;;;;;4.07;2.90;;;;;;;;;;4983521;28;20441;-72
2022/07/09 10:17:24;;;;;;;5.35;3.13;;;;;;;;;;4988485;28;20026;-73
2022/07/09 10:19:57;;;;;;;6.28;2.63;;;;;;;;;;4992744;28;20026;-72
2022/07/09 10:22:23;;;;;;;3.58;2.55;;;;;;;;;;4987544;28;20072;-71
2022/07/09 10:24:52;;;;;;;3.45;2.60;;;;;;;;;;4982343;28;20109;-73
2022/07/09 10:27:18;;;;;;;3.58;2.40;;;;;;;;;;4987316;28;20512;-74
2022/07/09 10:30:02;;;;;;;5.18;2.60;;;;;;;;;;4984528;28;20026;-73
2022/07/09 10:32:29;;;;;;;3.60;2.65;;;;;;;;;;4987169;28;20014;-74
2022/07/09 10:34:59;;;;;;;9.23;2.90;;;;;;;;;;4977834;28;20049;-74
2022/07/09 10:37:31;;;;;;;6.60;2.80;;;;;;;;;;4980432;28;20149;-74
2022/07/09 10:39:57;;;;;;;5.80;2.50;;;;;;;;;;4986035;28;20027;-70
2022/07/09 10:42:23;;;;;;;6.93;2.70;;;;;;;;;;4976977;28;20031;-82
2022/07/09 10:44:51;;;;;;;3.60;2.45;;;;;;;;;;4980721;28;20031;-78
2022/07/09 10:47:17;;;;;;;5.30;2.30;;;;;;;;;;4988813;28;20022;-78
2022/07/09 10:49:43;;;;;;;3.63;2.45;;;;;;;;;;4989694;28;20040;-78
2022/07/09 10:52:09;;;;;;;3.38;2.50;;;;;;;;;;4991372;28;20089;-81
2022/07/09 10:54:45;;;;;;;5.43;3.10;;;;;;;;;;4987142;28;20066;-80
2022/07/09 10:57:13;;;;;;;5.40;3.00;;;;;;;;;;4996060;28;20081;-77
2022/07/09 10:59:39;;;;;;;18.65;5.35;;;;;;;;;;4994712;28;20031;-78
2022/07/09 11:02:05;;;;;;;4.07;2.70;;;;;;;;;;4990223;28;20022;-78
2022/07/09 11:04:34;;;;;;;3.95;2.38;;;;;;;;;;4994270;28;20113;-85
2022/07/09 11:07:00;;;;;;;6.18;2.75;;;;;;;;;;4970175;28;20045;-72
2022/07/09 11:09:28;;;;;;;6.10;2.92;;;;;;;;;;4987127;28;20508;-73
2022/07/09 11:11:54;;;;;;;7.45;2.60;;;;;;;;;;4985352;28;20114;-78
2022/07/09 11:14:20;;;;;;;4.50;2.38;;;;;;;;;;4992134;28;20105;-71
2022/07/09 11:16:58;;;;;;;6.10;2.53;;;;;;;;;;4991900;28;20041;-71
2022/07/09 11:19:25;;;;;;;6.75;2.85;;;;;;;;;;4991566;28;20018;-71
2022/07/09 11:22:00;;;;;;;3.63;2.53;;;;;;;;;;4985518;28;20459;-73
2022/07/09 11:24:29;;;;;;;5.50;2.55;;;;;;;;;;4991367;28;20038;-70
2022/07/09 11:26:55;;;;;;;5.13;2.30;;;;;;;;;;4982829;28;20019;-70
2022/07/09 11:29:21;;;;;;;3.67;2.40;;;;;;;;;;4986393;28;20034;-72
2022/07/09 11:31:51;;;;;;;10.57;3.75;;;;;;;;;;4974704;28;20427;-72
2022/07/09 11:34:18;;;;;;;3.95;3.08;;;;;;;;;;4989868;28;20027;-74
2022/07/09 11:36:51;;;;;;;5.72;3.38;;;;;;;;;;4985499;28;20054;-75
2022/07/09 11:39:27;;;;;;;3.15;2.40;;;;;;;;;;4986881;28;20057;-73
2022/07/09 11:41:53;;;;;;;5.93;2.85;;;;;;;;;;4988977;28;20113;-73
2022/07/09 11:44:24;;;;;;;3.78;2.53;;;;;;;;;;4991161;28;20078;-73
2022/07/09 11:47:06;;;;;;;5.50;2.45;;;;;;;;;;4986616;28;20098;-72
2022/07/09 11:49:33;;;;;;;6.45;3.20;;;;;;;;;;4988660;28;20101;-72
2022/07/09 11:51:59;;;;;;;4.00;2.47;;;;;;;;;;4989843;28;20480;-73
2022/07/09 11:54:29;;;;;;;3.85;2.50;;;;;;;;;;4991541;28;20476;-75
2022/07/09 11:56:55;;;;;;;7.25;2.60;;;;;;;;;;4979222;28;20026;-74
2022/07/09 11:59:31;;;;;;;3.42;2.47;;;;;;;;;;4976488;28;20038;-74
2022/07/09 12:01:58;;;;;;;4.40;2.60;;;;;;;;;;4989280;28;20448;-87
2022/07/09 12:04:24;;;;;;;3.72;2.60;;;;;;;;;;4993376;28;20034;-88
2022/07/09 12:06:53;;;;;;;4.00;2.70;;;;;;;;;;4991529;28;20050;-78
2022/07/09 12:09:32;;;;;;;3.88;2.50;;;;;;;;;;4990488;28;20051;-76
2022/07/09 12:11:58;;;;;;;5.07;2.70;;;;;;;;;;4979959;28;20022;-72
2022/07/09 12:14:24;;;;;;;4.22;2.50;;;;;;;;;;4984402;28;20023;-75
2022/07/09 12:16:51;;;;;;;5.97;2.45;;;;;;;;;;4980507;28;20473;-73
2022/07/09 12:19:17;;;;;;;3.53;2.50;;;;;;;;;;4983528;28;20039;-72
2022/07/09 12:21:43;;;;;;;4.50;2.20;;;;;;;;;;4987653;28;20029;-79
2022/07/09 12:24:09;;;;;;;3.72;2.30;;;;;;;;;;4987217;28;20034;-78
2022/07/09 12:26:35;;;;;;;4.38;2.42;;;;;;;;;;4980323;28;20110;-77
2022/07/09 12:29:01;;;;;;;4.00;2.40;;;;;;;;;;4988614;28;20038;-72
2022/07/09 12:31:27;;;;;;;6.50;2.70;;;;;;;;;;4985538;28;20027;-79
2022/07/09 12:33:53;;;;;;;4.18;2.50;;;;;;;;;;4986456;28;20105;-71
2022/07/09 12:36:19;;;;;;;3.80;2.50;;;;;;;;;;4986432;28;20029;-75
2022/07/09 12:38:45;;;;;;;4.30;2.30;;;;;;;;;;4991240;28;20030;-72
2022/07/09 12:41:11;;;;;;;4.03;2.33;;;;;;;;;;4992600;28;20038;-70
2022/07/09 12:43:37;;;;;;;6.57;2.30;;;;;;;;;;4992142;28;20026;-72
2022/07/09 12:46:04;;;;;;;3.67;2.30;;;;;;;;;;4989655;28;20109;-71
2022/07/09 12:48:30;;;;;;;7.63;2.40;;;;;;;;;;4978460;28;20030;-71
2022/07/09 12:50:56;;;;;;;5.13;2.63;;;;;;;;;;4979213;28;20033;-72
2022/07/09 12:53:22;;;;;;;3.80;2.25;;;;;;;;;;4984321;28;20132;-72
2022/07/09 12:55:48;;;;;;;3.67;2.30;;;;;;;;;;4985150;28;20065;-71
2022/07/09 12:58:14;;;;;;;2.70;2.10;;;;;;;;;;4985925;28;20026;-74
2022/07/09 13:00:40;;;;;;;3.15;2.28;;;;;;;;;;4988474;28;20054;-73
2022/07/09 13:03:06;;;;;;;3.75;2.33;;;;;;;;;;4986020;28;20034;-72
2022/07/09 13:05:32;;;;;;;4.25;2.42;;;;;;;;;;4980755;28;20034;-76
2022/07/09 13:07:58;;;;;;;5.82;2.40;;;;;;;;;;4985847;28;20046;-69
2022/07/09 13:10:24;;;;;;;5.15;2.33;;;;;;;;;;4990026;28;20037;-70
2022/07/09 13:12:50;;;;;;;3.75;2.15;;;;;;;;;;4984893;28;20123;-74
2022/07/09 13:15:21;;;;;;;4.63;2.10;;;;;;;;;;4980435;28;20534;-69
2022/07/09 13:17:50;;;;;;;4.75;2.13;;;;;;;;;;4982253;28;20037;-71
2022/07/09 13:20:17;;;;;;;4.10;2.20;;;;;;;;;;4991758;28;20022;-71
2022/07/09 13:22:43;;;;;;;3.83;2.30;;;;;;;;;;4990888;28;20113;-68
2022/07/09 13:25:09;;;;;;;6.47;2.67;;;;;;;;;;4991948;28;20038;-70
2022/07/09 13:27:35;;;;;;;2.92;2.30;;;;;;;;;;4993383;28;20180;-70
2022/07/09 13:30:01;;;;;;;4.13;2.65;;;;;;;;;;4993780;28;20089;-71
2022/07/09 13:32:27;;;;;;;3.97;2.60;;;;;;;;;;4992210;28;20424;-72
2022/07/09 13:34:53;;;;;;;6.38;2.45;;;;;;;;;;4984304;28;20026;-72
2022/07/09 13:37:20;;;;;;;5.80;2.85;;;;;;;;;;4979718;28;20038;-71
2022/07/09 13:39:46;;;;;;;5.28;2.50;;;;;;;;;;4993623;28;20041;-72
2022/07/09 13:42:12;;;;;;;7.22;2.92;;;;;;;;;;4993263;28;20025;-72
2022/07/09 13:44:38;;;;;;;4.07;2.38;;;;;;;;;;4987222;28;20523;-72
2022/07/09 13:47:05;;;;;;;3.47;2.28;;;;;;;;;;4976697;28;20105;-70
2022/07/09 13:49:31;;;;;;;7.80;2.90;;;;;;;;;;4992644;28;20022;-73
2022/07/09 13:51:57;;;;;;;5.50;2.40;;;;;;;;;;4992771;28;20027;-73
2022/07/09 13:54:23;;;;;;;2.92;2.22;;;;;;;;;;4990112;28;20054;-70
2022/07/09 13:56:49;;;;;;;5.88;2.58;;;;;;;;;;4992396;28;20022;-71
2022/07/09 13:59:17;;;;;;;5.75;2.53;;;;;;;;;;4991625;28;20046;-70
2022/07/09 14:01:43;;;;;;;5.43;2.70;;;;;;;;;;4992167;28;20530;-73
2022/07/09 14:04:09;;;;;;;7.90;3.08;;;;;;;;;;4986864;28;20034;-73
2022/07/09 14:06:35;;;;;;;6.15;2.53;;;;;;;;;;4989646;28;20448;-71
2022/07/09 14:09:01;;;;;;;9.43;2.95;;;;;;;;;;4992750;28;20046;-74
2022/07/09 14:11:27;;;;;;;7.78;2.95;;;;;;;;;;4982569;28;20062;-73
2022/07/09 14:13:54;;;;;;;4.82;2.58;;;;;;;;;;4984500;28;20025;-73
2022/07/09 14:16:20;;;;;;;5.90;2.70;;;;;;;;;;4980390;28;20479;-72
2022/07/09 14:18:46;;;;;;;5.13;2.40;;;;;;;;;;4987077;28;20388;-72
2022/07/09 14:21:12;;;;;;;22.35;17.95;;;;;;;;;;4982770;28;20027;-71
2022/07/09 14:23:38;;;;;;;8.88;4.43;;;;;;;;;;4992474;28;20041;-73
2022/07/09 14:26:05;;;;;;;4.65;2.22;;;;;;;;;;4987833;28;20502;-68
2022/07/09 14:28:31;;;;;;;5.03;2.70;;;;;;;;;;4983496;28;20465;-73
2022/07/09 14:30:57;;;;;;;7.35;2.60;;;;;;;;;;4977541;28;20022;-72
2022/07/09 14:33:23;;;;;;;4.45;2.67;;;;;;;;;;4989141;28;20026;-72
2022/07/09 14:35:49;;;;;;;3.47;2.40;;;;;;;;;;4992475;28;20468;-72
2022/07/09 14:38:15;;;;;;;8.10;2.63;;;;;;;;;;4989840;28;20399;-73
2022/07/09 14:40:41;;;;;;;3.92;2.50;;;;;;;;;;4992988;28;20026;-73
2022/07/09 14:43:07;;;;;;;5.97;2.67;;;;;;;;;;4991780;28;20097;-73